createdAt,value
2022-11-29T00:01:41.245Z,99967.06
2022-11-29T00:04:09.328Z,99974.63
2022-11-29T00:06:37.440Z,99965.50
2022-11-29T00:09:09.351Z,99965.22
2022-11-29T00:11:58.209Z,99970.72
2022-11-29T00:14:27.870Z,99966.47
2022-11-29T00:17:03.261Z,99963.41
2022-11-29T00:19:35.527Z,99967.31
2022-11-29T00:22:04.591Z,99968.84
2022-11-29T00:24:33.008Z,99970.97
2022-11-29T00:27:01.193Z,99965.22
2022-11-29T00:29:30.106Z,99966.81
2022-11-29T00:31:57.555Z,99970.69
2022-11-29T00:34:25.127Z,99959.50
2022-11-29T00:36:52.714Z,99963.69
2022-11-29T00:39:20.385Z,99963.69
2022-11-29T00:41:47.902Z,99965.25
2022-11-29T00:44:19.917Z,99964.75
2022-11-29T00:46:48.849Z,99967.63
2022-11-29T00:49:16.574Z,99960.84
2022-11-29T00:51:44.151Z,99964.75
2022-11-29T00:54:11.762Z,99962.38
2022-11-29T00:56:39.342Z,99956.66
2022-11-29T00:59:06.861Z,99955.66
2022-11-29T01:01:34.379Z,99950.16
2022-11-29T01:04:03.155Z,99953.78
2022-11-29T01:06:30.611Z,99942.59
2022-11-29T01:08:58.265Z,99936.38
2022-11-29T01:11:28.496Z,99936.09
2022-11-29T01:13:59.518Z,99926.25
2022-11-29T01:16:30.146Z,99931.69
2022-11-29T01:18:57.889Z,99936.56
2022-11-29T01:21:26.057Z,99925.44
2022-11-29T01:23:54.573Z,99929.84
2022-11-29T01:26:26.597Z,99920.75
2022-11-29T01:28:56.850Z,99924.47
2022-11-29T01:31:32.468Z,99926.50
2022-11-29T01:34:03.889Z,99931.44
2022-11-29T01:36:31.597Z,99941.56
2022-11-29T01:39:04.025Z,99935.63
2022-11-29T01:41:36.748Z,99935.84
2022-11-29T01:44:28.505Z,99930.88
2022-11-29T01:46:57.914Z,99931.44
2022-11-29T01:49:37.589Z,99929.34
2022-11-29T01:52:24.410Z,99923.88
2022-11-29T01:54:57.821Z,99929.84
2022-11-29T01:57:26.857Z,99916.84
2022-11-29T02:00:07.503Z,99921.84
2022-11-29T02:03:11.790Z,99917.69
2022-11-29T02:05:48.137Z,99916.91
2022-11-29T02:08:50.565Z,99918.94
2022-11-29T02:11:45.904Z,99909.59
2022-11-29T02:14:27.302Z,99915.31
2022-11-29T02:17:37.606Z,99913.75
2022-11-29T02:20:58.804Z,99907.50
2022-11-29T02:24:11.743Z,99911.94
2022-11-29T02:27:37.007Z,99923.63
2022-11-29T02:30:44.472Z,99917.94
2022-11-29T02:37:28.551Z,99916.66
2022-11-29T02:40:13.907Z,99920.00
2022-11-29T02:43:18.815Z,99914.53
2022-11-29T02:46:17.162Z,99913.38
2022-11-29T02:49:40.864Z,99910.13
2022-11-29T02:52:46.727Z,99911.16
2022-11-29T02:55:36.369Z,99913.00
2022-11-29T02:58:36.331Z,99917.41
2022-11-29T03:04:29.018Z,99926.69
2022-11-29T03:07:09.773Z,99924.41
2022-11-29T03:10:04.541Z,99928.84
2022-11-29T03:12:41.282Z,99934.03
2022-11-29T03:15:14.917Z,99928.78
2022-11-29T03:18:20.192Z,99929.38
2022-11-29T03:21:16.880Z,99928.53
2022-11-29T03:23:50.399Z,99928.47
2022-11-29T03:26:40.359Z,99934.16
2022-11-29T03:29:38.289Z,99935.63
2022-11-29T03:33:08.808Z,99931.97
2022-11-29T03:36:07.071Z,99931.69
2022-11-29T03:38:45.113Z,99933.81
2022-11-29T03:41:41.517Z,99938.19
2022-11-29T03:44:27.530Z,99937.44
2022-11-29T03:47:15.042Z,99937.69
2022-11-29T03:50:07.063Z,99925.94
2022-11-29T03:53:04.013Z,99921.03
2022-11-29T03:55:46.322Z,99928.56
2022-11-29T03:58:34.828Z,99924.66
2022-11-29T04:01:22.470Z,99924.38
2022-11-29T04:04:36.974Z,99929.13
2022-11-29T04:07:34.741Z,99929.91
2022-11-29T04:10:48.586Z,99926.03
2022-11-29T04:13:47.070Z,99934.34
2022-11-29T04:16:45.245Z,99929.38
2022-11-29T04:19:59.010Z,99936.16
2022-11-29T04:22:32.104Z,99933.75
2022-11-29T04:25:47.578Z,99939.25
2022-11-29T04:28:52.706Z,99931.66
2022-11-29T04:31:53.380Z,99928.09
2022-11-29T04:34:32.712Z,99934.84
2022-11-29T04:37:13.802Z,99936.91
2022-11-29T04:40:22.641Z,99934.06
2022-11-29T04:42:59.423Z,99932.25
2022-11-29T04:45:59.369Z,99944.22
2022-11-29T04:49:05.778Z,99940.78
2022-11-29T04:51:53.669Z,99944.44
2022-11-29T04:55:23.820Z,99951.50
2022-11-29T04:58:10.294Z,99953.03
2022-11-29T05:01:12.324Z,99960.06
2022-11-29T05:04:01.716Z,99959.53
2022-11-29T05:07:08.237Z,99957.44
2022-11-29T05:09:59.664Z,99964.50
2022-11-29T05:13:03.850Z,99961.09
2022-11-29T05:16:00.831Z,99966.00
2022-11-29T05:19:17.361Z,99972.78
2022-11-29T05:22:12.543Z,99965.25
2022-11-29T05:25:37.023Z,99972.50
2022-11-29T05:28:20.532Z,99979.53
2022-11-29T05:31:32.416Z,99982.41
2022-11-29T05:34:20.626Z,99981.91
2022-11-29T05:37:02.871Z,99987.84
2022-11-29T05:39:57.689Z,99988.94
2022-11-29T05:43:01.409Z,99981.09
2022-11-29T05:45:59.861Z,99980.75
2022-11-29T05:48:54.069Z,99978.28
2022-11-29T05:52:00.801Z,99992.56
2022-11-29T05:54:41.086Z,99979.81
2022-11-29T05:57:47.431Z,99985.03
2022-11-29T06:00:17.424Z,99990.78
2022-11-29T06:03:24.315Z,99994.13
2022-11-29T06:06:08.234Z,99992.31
2022-11-29T06:09:16.281Z,99982.13
2022-11-29T06:11:50.930Z,99989.72
2022-11-29T06:15:02.758Z,99992.06
2022-11-29T06:18:25.879Z,99992.06
2022-11-29T06:21:26.411Z,100001.66
2022-11-29T06:23:59.254Z,99987.84
2022-11-29T06:26:56.144Z,99991.25
2022-11-29T06:29:35.200Z,99986.59
2022-11-29T06:32:26.933Z,99988.41
2022-11-29T06:35:12.014Z,99990.72
2022-11-29T06:37:46.277Z,99994.34
2022-11-29T06:40:16.719Z,99997.47
2022-11-29T06:42:44.868Z,99994.41
2022-11-29T06:45:15.963Z,99994.88
2022-11-29T06:47:52.882Z,99994.63
2022-11-29T06:50:38.545Z,99994.34
2022-11-29T06:53:55.445Z,99992.72
2022-11-29T06:57:04.043Z,99992.50
2022-11-29T06:59:40.234Z,99989.13
2022-11-29T07:02:55.571Z,99988.13
2022-11-29T07:05:32.730Z,99988.00
2022-11-29T07:08:14.879Z,99982.34
2022-11-29T07:10:44.381Z,99989.94
2022-11-29T07:13:16.405Z,99984.94
2022-11-29T07:16:28.686Z,99994.34
2022-11-29T07:19:27.581Z,100001.03
2022-11-29T07:31:54.877Z,100002.59
2022-11-29T07:34:33.990Z,100008.78
2022-11-29T07:37:37.799Z,100008.28
2022-11-29T07:40:23.046Z,100005.34
2022-11-29T07:43:34.577Z,100011.22
2022-11-29T07:46:02.547Z,100008.78
2022-11-29T07:48:30.118Z,100009.97
2022-11-29T07:50:58.019Z,100002.66
2022-11-29T07:53:25.750Z,99998.69
2022-11-29T07:55:53.342Z,100001.03
2022-11-29T07:58:21.199Z,99998.84
2022-11-29T08:00:48.709Z,99994.75
2022-11-29T08:03:16.231Z,99991.66
2022-11-29T08:05:47.696Z,99990.03
2022-11-29T08:08:16.159Z,99998.63
2022-11-29T08:10:46.050Z,99996.63
2022-11-29T08:13:14.613Z,100006.47
2022-11-29T08:15:49.478Z,100012.19
2022-11-29T08:18:17.671Z,100013.47
2022-11-29T08:20:46.331Z,100010.09
2022-11-29T08:23:14.748Z,100014.06
2022-11-29T08:25:42.643Z,100014.47
2022-11-29T08:28:10.696Z,100010.09
2022-11-29T08:30:39.146Z,100004.97
2022-11-29T08:33:07.191Z,100006.75
2022-11-29T08:35:37.019Z,100001.44
2022-11-29T08:38:05.067Z,100001.44
2022-11-29T08:40:32.803Z,99994.84
2022-11-29T08:43:00.348Z,99997.53
2022-11-29T08:45:27.929Z,100001.94
2022-11-29T08:47:55.746Z,99999.94
2022-11-29T08:50:23.400Z,100001.03
2022-11-29T08:53:09.791Z,99988.84
2022-11-29T08:55:42.936Z,99987.56
2022-11-29T08:58:14.669Z,99999.25
2022-11-29T09:00:46.426Z,99996.03
2022-11-29T09:03:32.587Z,99994.78
2022-11-29T09:06:12.642Z,99984.94
2022-11-29T09:08:43.789Z,99987.94
2022-11-29T09:11:22.502Z,99980.50
2022-11-29T09:13:54.008Z,99977.72
2022-11-29T09:16:25.724Z,99981.19
2022-11-29T09:18:56.386Z,99979.00
2022-11-29T09:21:29.441Z,99978.03
2022-11-29T09:24:02.547Z,99973.25
2022-11-29T09:26:34.321Z,99967.13
2022-11-29T09:29:05.051Z,99959.81
2022-11-29T09:31:33.498Z,99951.63
2022-11-29T09:34:01.312Z,99943.53
2022-11-29T09:36:31.419Z,99951.75
2022-11-29T09:39:02.675Z,99941.75
2022-11-29T09:42:22.413Z,99941.34
2022-11-29T09:45:12.371Z,99937.22
2022-11-29T09:48:09.528Z,99925.00
2022-11-29T09:51:03.573Z,99924.13
2022-11-29T09:54:16.535Z,99919.31
2022-11-29T09:56:55.778Z,99922.75
2022-11-29T09:59:52.357Z,99914.06
2022-11-29T10:02:47.904Z,99921.31
2022-11-29T10:05:28.823Z,99919.28
2022-11-29T10:08:15.908Z,99928.66
2022-11-29T10:10:49.908Z,99917.56
2022-11-29T10:13:33.009Z,99922.91
2022-11-29T10:16:30.131Z,99916.25
2022-11-29T10:19:15.622Z,99919.28
2022-11-29T10:22:00.859Z,99920.97
2022-11-29T10:24:30.399Z,99916.59
2022-11-29T10:26:59.150Z,99918.56
2022-11-29T10:29:27.265Z,99925.97
2022-11-29T10:31:56.856Z,99912.94
2022-11-29T10:34:26.895Z,99909.41
2022-11-29T10:37:02.720Z,99904.00
2022-11-29T10:39:39.858Z,99910.16
2022-11-29T10:42:40.267Z,99914.13
2022-11-29T10:45:35.663Z,99912.56
2022-11-29T10:48:10.144Z,99912.41
2022-11-29T10:50:38.685Z,99915.53
2022-11-29T10:53:20.988Z,99919.63
2022-11-29T10:56:00.943Z,99906.09
2022-11-29T10:58:30.805Z,99910.31
2022-11-29T11:01:01.259Z,99904.13
2022-11-29T11:03:53.154Z,99904.63
2022-11-29T11:06:23.793Z,99893.75
2022-11-29T11:09:16.072Z,99901.19
2022-11-29T11:11:59.600Z,99893.97
2022-11-29T11:14:38.856Z,99888.13
2022-11-29T11:17:30.267Z,99891.97
2022-11-29T11:20:23.129Z,99892.59
2022-11-29T11:23:20.183Z,99898.84
2022-11-29T11:25:50.719Z,99891.44
2022-11-29T11:28:31.452Z,99902.41
2022-11-29T11:31:11.250Z,99896.97
2022-11-29T11:33:46.613Z,99892.19
2022-11-29T11:36:24.275Z,99889.06
2022-11-29T11:39:12.597Z,99893.59
2022-11-29T11:42:02.182Z,99885.59
2022-11-29T11:44:49.317Z,99881.38
2022-11-29T11:47:22.132Z,99883.09
2022-11-29T11:50:02.622Z,99882.66
2022-11-29T11:52:40.702Z,99878.34
2022-11-29T11:55:38.080Z,99884.19
2022-11-29T11:58:48.091Z,99878.91
2022-11-29T12:01:38.613Z,99881.44
2022-11-29T12:04:22.734Z,99883.75
2022-11-29T12:07:01.308Z,99880.78
2022-11-29T12:09:40.952Z,99873.34
2022-11-29T12:12:43.694Z,99867.75
2022-11-29T12:15:36.197Z,99872.38
2022-11-29T12:18:16.564Z,99872.06
2022-11-29T12:21:17.579Z,99880.31
2022-11-29T12:24:18.833Z,99871.88
2022-11-29T12:26:56.903Z,99878.72
2022-11-29T12:29:30.078Z,99879.03
2022-11-29T12:32:00.170Z,99873.97
2022-11-29T12:34:52.510Z,99878.25
2022-11-29T12:37:35.999Z,99878.31
2022-11-29T12:40:26.853Z,99873.78
2022-11-29T12:43:27.172Z,99871.47
2022-11-29T12:46:15.288Z,99883.63
2022-11-29T12:49:09.849Z,99880.78
2022-11-29T12:52:07.270Z,99874.31
2022-11-29T12:54:41.511Z,99871.97
2022-11-29T12:57:39.185Z,99878.13
2022-11-29T13:00:17.205Z,99879.84
2022-11-29T13:03:06.756Z,99874.06
2022-11-29T13:05:41.531Z,99878.88
2022-11-29T13:08:36.357Z,99877.16
2022-11-29T13:11:09.180Z,99871.09
2022-11-29T13:14:45.391Z,99869.91
2022-11-29T13:17:54.455Z,99878.69
2022-11-29T13:20:42.909Z,99878.06
2022-11-29T13:23:16.080Z,99873.19
2022-11-29T13:25:50.768Z,99879.16
2022-11-29T13:28:30.418Z,99866.69
2022-11-29T13:31:07.785Z,99867.75
2022-11-29T13:33:59.113Z,99871.38
2022-11-29T13:37:07.619Z,99872.19
2022-11-29T13:40:01.586Z,99867.13
2022-11-29T13:42:47.059Z,99874.28
2022-11-29T13:46:01.704Z,99873.16
2022-11-29T13:48:29.126Z,99878.19
2022-11-29T13:51:24.360Z,99875.41
2022-11-29T13:53:53.663Z,99876.69
2022-11-29T13:56:46.591Z,99879.09
2022-11-29T13:59:28.438Z,99876.81
2022-11-29T14:01:58.475Z,99880.47
2022-11-29T14:04:39.160Z,99875.56
2022-11-29T14:07:19.577Z,99877.84
2022-11-29T14:10:07.440Z,99875.00
2022-11-29T14:12:53.589Z,99877.22
2022-11-29T14:15:28.402Z,99878.63
2022-11-29T14:18:02.421Z,99875.06
2022-11-29T14:20:29.856Z,99876.34
2022-11-29T14:23:06.424Z,99876.81
2022-11-29T14:25:56.169Z,99874.81
2022-11-29T14:28:23.638Z,99872.03
2022-11-29T14:30:57.193Z,99869.97
2022-11-29T14:33:46.194Z,99874.97
2022-11-29T14:36:20.443Z,99870.56
2022-11-29T14:39:28.369Z,99873.91
2022-11-29T14:42:19.788Z,99884.66
2022-11-29T14:45:04.844Z,99882.56
2022-11-29T14:47:37.396Z,99885.94
2022-11-29T14:50:24.456Z,99890.94
2022-11-29T14:52:55.219Z,99885.47
2022-11-29T14:55:38.720Z,99890.31
2022-11-29T14:58:20.474Z,99890.28
2022-11-29T15:00:56.459Z,99892.91
2022-11-29T15:03:37.104Z,99899.59
2022-11-29T15:06:18.393Z,99895.84
2022-11-29T15:09:19.347Z,99900.34
2022-11-29T15:12:24.684Z,99902.25
2022-11-29T15:15:26.313Z,99904.34
2022-11-29T15:18:55.886Z,99901.81
2022-11-29T15:21:56.925Z,99903.31
2022-11-29T15:24:28.716Z,99895.94
2022-11-29T15:27:03.950Z,99911.84
2022-11-29T15:29:32.174Z,99898.91
2022-11-29T15:32:06.070Z,99906.38
2022-11-29T15:34:41.252Z,99897.28
2022-11-29T15:37:34.393Z,99907.13
2022-11-29T15:40:12.642Z,99906.75
2022-11-29T15:42:55.129Z,99904.06
2022-11-29T15:45:33.457Z,99907.19
2022-11-29T15:48:20.723Z,99903.53
2022-11-29T15:51:37.098Z,99905.03
2022-11-29T15:54:53.293Z,99911.78
2022-11-29T15:57:48.728Z,99910.47
2022-11-29T16:00:23.209Z,99917.34
2022-11-29T16:03:28.387Z,99918.44
2022-11-29T16:06:34.699Z,99905.72
2022-11-29T16:09:04.540Z,99917.28
2022-11-29T16:11:35.051Z,99916.66
2022-11-29T16:14:14.824Z,99910.34
2022-11-29T16:16:46.793Z,99918.94
2022-11-29T16:19:29.867Z,99925.06
2022-11-29T16:22:17.655Z,99926.22
2022-11-29T16:24:57.591Z,99916.75
2022-11-29T16:27:31.915Z,99917.91
2022-11-29T16:30:08.028Z,99925.72
2022-11-29T16:32:42.464Z,99927.94
2022-11-29T16:35:34.669Z,99920.22
2022-11-29T16:38:07.597Z,99925.19
2022-11-29T16:40:39.228Z,99918.06
2022-11-29T16:43:27.135Z,99927.38
2022-11-29T16:46:26.770Z,99929.56
2022-11-29T16:49:00.154Z,99925.84
2022-11-29T16:51:40.134Z,99927.34
2022-11-29T16:54:34.404Z,99933.22
2022-11-29T16:57:06.276Z,99932.69
2022-11-29T16:59:42.969Z,99933.16
2022-11-29T17:02:17.600Z,99937.66
2022-11-29T17:04:48.061Z,99922.44
2022-11-29T17:07:33.367Z,99936.66
2022-11-29T17:10:04.503Z,99938.41
2022-11-29T17:12:32.188Z,99936.88
2022-11-29T17:15:00.922Z,99944.78
2022-11-29T17:17:29.965Z,99948.34
2022-11-29T17:19:59.466Z,99954.91
2022-11-29T17:22:29.271Z,99955.22
2022-11-29T17:24:58.262Z,99958.06
2022-11-29T17:27:25.849Z,99961.66
2022-11-29T17:29:53.298Z,99953.09
2022-11-29T17:32:26.527Z,99957.22
2022-11-29T17:34:54.711Z,99962.84
2022-11-29T17:37:23.456Z,99957.31
2022-11-29T17:39:52.185Z,99963.09
2022-11-29T17:42:21.687Z,99962.44
2022-11-29T17:45:09.883Z,99961.66
2022-11-29T17:47:38.338Z,99962.38
2022-11-29T17:50:06.790Z,99962.56
2022-11-29T17:52:35.590Z,99969.38
2022-11-29T17:55:06.714Z,99968.59
2022-11-29T17:57:34.299Z,99973.13
2022-11-29T18:00:06.239Z,99966.16
2022-11-29T18:02:35.085Z,99972.09
2022-11-29T18:05:02.699Z,99962.50
2022-11-29T18:07:33.388Z,99973.59
2022-11-29T18:10:02.532Z,99967.22
2022-11-29T18:12:31.190Z,99978.44
2022-11-29T18:15:08.806Z,99971.66
2022-11-29T18:17:36.452Z,99974.00
2022-11-29T18:20:05.532Z,99970.78
2022-11-29T18:22:35.151Z,99973.00
2022-11-29T18:25:36.804Z,99962.31
2022-11-29T18:28:02.010Z,99970.06
2022-11-29T18:30:30.205Z,99963.91
2022-11-29T18:32:58.203Z,99964.94
2022-11-29T18:35:30.373Z,99966.22
2022-11-29T18:38:15.149Z,99973.66
2022-11-29T18:40:50.093Z,99970.69
2022-11-29T18:43:26.318Z,99972.16
2022-11-29T18:45:57.381Z,99963.91
2022-11-29T18:48:34.170Z,99974.44
2022-11-29T18:51:17.368Z,99972.13
2022-11-29T18:53:45.898Z,99971.28
2022-11-29T18:56:18.995Z,99973.28
2022-11-29T18:59:23.251Z,99973.25
2022-11-29T19:01:53.520Z,99974.50
2022-11-29T19:04:25.341Z,99974.13
2022-11-29T19:06:54.437Z,99975.31
2022-11-29T19:09:23.655Z,99976.38
2022-11-29T19:11:55.457Z,99976.53
2022-11-29T19:14:23.634Z,99977.66
2022-11-29T19:16:51.432Z,99971.59
2022-11-29T19:19:19.272Z,99972.50
2022-11-29T19:21:49.255Z,99982.72
2022-11-29T19:24:18.908Z,99982.78
2022-11-29T19:26:49.843Z,99978.31
2022-11-29T19:29:18.167Z,99979.47
2022-11-29T19:31:48.585Z,99989.41
2022-11-29T19:34:17.146Z,99984.25
2022-11-29T19:36:47.063Z,99976.16
2022-11-29T19:39:17.755Z,99982.66
2022-11-29T19:41:48.461Z,99974.81
2022-11-29T19:44:16.519Z,99986.84
2022-11-29T19:46:53.630Z,99982.25
2022-11-29T19:49:21.562Z,99982.28
2022-11-29T19:51:50.307Z,99980.25
2022-11-29T19:54:18.705Z,99982.09
2022-11-29T19:56:46.542Z,99983.88
2022-11-29T19:59:16.190Z,99978.72
2022-11-29T20:01:43.979Z,99984.66
2022-11-29T20:04:13.822Z,99980.75
2022-11-29T20:06:42.695Z,99979.47
2022-11-29T20:09:12.103Z,99983.19
2022-11-29T20:11:41.047Z,99985.16
2022-11-29T20:14:10.989Z,99984.38
2022-11-29T20:16:39.325Z,99977.75
2022-11-29T20:19:17.000Z,99984.94
2022-11-29T20:21:49.003Z,99978.97
2022-11-29T20:24:18.105Z,99984.00
2022-11-29T20:26:48.323Z,99972.44
2022-11-29T20:29:17.015Z,99986.63
2022-11-29T20:31:50.656Z,99971.97
2022-11-29T20:34:20.442Z,99962.84
2022-11-29T20:37:21.369Z,99967.25
2022-11-29T20:40:03.343Z,99978.66
2022-11-29T20:43:19.533Z,99971.88
2022-11-29T20:45:47.647Z,99975.56
2022-11-29T20:48:22.075Z,99968.59
2022-11-29T20:50:59.640Z,99973.81
2022-11-29T20:53:33.723Z,99970.50
2022-11-29T20:56:02.512Z,99967.53
2022-11-29T20:58:30.545Z,99977.56
2022-11-29T21:00:58.739Z,99978.09
2022-11-29T21:03:28.028Z,99976.66
2022-11-29T21:05:56.949Z,99969.00
2022-11-29T21:08:27.013Z,99974.53
2022-11-29T21:10:55.122Z,99966.22
2022-11-29T21:13:24.252Z,99962.34
2022-11-29T21:15:56.637Z,99971.28
2022-11-29T21:18:29.596Z,99963.19
2022-11-29T21:21:41.753Z,99962.72
2022-11-29T21:24:42.536Z,99968.94
2022-11-29T21:27:18.043Z,99960.06
2022-11-29T21:29:48.558Z,99966.72
2022-11-29T21:32:25.886Z,99956.41
2022-11-29T21:34:53.899Z,99964.72
2022-11-29T21:37:27.544Z,99966.84
2022-11-29T21:39:56.172Z,99965.44
2022-11-29T21:42:24.210Z,99962.38
2022-11-29T21:44:51.647Z,99970.56
2022-11-29T21:47:19.093Z,99964.84
2022-11-29T21:49:46.896Z,99961.78
2022-11-29T21:52:20.707Z,99955.53
2022-11-29T21:54:50.118Z,99958.28
2022-11-29T21:57:17.600Z,99965.03
2022-11-29T21:59:45.839Z,99952.38
2022-11-29T22:02:13.628Z,99957.50
2022-11-29T22:04:41.118Z,99962.81
2022-11-29T22:07:09.843Z,99960.19
2022-11-29T22:09:37.499Z,99955.44
2022-11-29T22:12:25.773Z,99959.06
2022-11-29T22:14:52.867Z,99958.34
2022-11-29T22:17:20.265Z,99952.78
2022-11-29T22:19:47.855Z,99953.78
2022-11-29T22:22:15.379Z,99956.78
2022-11-29T22:24:43.114Z,99948.81
2022-11-29T22:27:10.540Z,99940.19
2022-11-29T22:29:38.077Z,99947.13
2022-11-29T22:32:06.249Z,99944.41
2022-11-29T22:34:33.753Z,99947.78
2022-11-29T22:37:01.288Z,99950.19
2022-11-29T22:39:28.725Z,99941.34
2022-11-29T22:41:56.213Z,99935.06
2022-11-29T22:44:24.815Z,99937.72
2022-11-29T22:46:52.605Z,99933.59
2022-11-29T22:49:20.499Z,99935.38
2022-11-29T22:51:48.061Z,99934.69
2022-11-29T22:54:16.593Z,99930.25
2022-11-29T22:56:45.731Z,99934.34
2022-11-29T22:59:13.664Z,99935.22
2022-11-29T23:01:43.014Z,99935.66
2022-11-29T23:04:12.401Z,99943.97
2022-11-29T23:06:45.831Z,99938.66
2022-11-29T23:09:21.736Z,99937.66
2022-11-29T23:11:55.850Z,99941.50
2022-11-29T23:14:23.950Z,99925.78
2022-11-29T23:16:52.002Z,99927.84
2022-11-29T23:19:20.151Z,99930.38
2022-11-29T23:21:47.969Z,99920.22
2022-11-29T23:24:16.391Z,99923.59
2022-11-29T23:26:46.995Z,99918.44
2022-11-29T23:29:18.593Z,99921.72
2022-11-29T23:31:46.946Z,99912.78
2022-11-29T23:34:15.348Z,99916.81
2022-11-29T23:36:46.887Z,99908.88
2022-11-29T23:39:17.248Z,99900.59
2022-11-29T23:41:44.770Z,99902.78
2022-11-29T23:44:12.488Z,99898.16
2022-11-29T23:46:39.983Z,99901.34
2022-11-29T23:49:07.488Z,99901.38
2022-11-29T23:51:34.977Z,99894.28
2022-11-29T23:54:02.561Z,99901.84
2022-11-29T23:56:35.160Z,99897.19
2022-11-29T23:59:03.081Z,99895.41
